createdAt,value
2023-04-20T00:00:15.916Z,12.58
2023-04-20T00:05:18.692Z,11.97
2023-04-20T00:10:22.802Z,12.02
2023-04-20T00:15:25.592Z,12.29
2023-04-20T00:20:28.915Z,12.54
2023-04-20T00:25:33.249Z,12.49
2023-04-20T00:30:36.195Z,12.43
2023-04-20T00:35:40.906Z,12.41
2023-04-20T00:40:48.807Z,12.76
2023-04-20T00:45:52.102Z,12.47
2023-04-20T00:50:54.941Z,12.44
2023-04-20T00:55:59.806Z,12.11
2023-04-20T01:01:02.819Z,11.96
2023-04-20T01:06:06.649Z,11.82
2023-04-20T01:11:10.801Z,11.56
2023-04-20T01:16:13.802Z,11.62
2023-04-20T01:21:17.993Z,11.43
2023-04-20T01:26:24.781Z,11.84
2023-04-20T01:31:27.625Z,11.63
2023-04-20T01:36:31.080Z,11.63
2023-04-20T01:41:35.414Z,11.86
2023-04-20T01:46:39.181Z,11.56
2023-04-20T01:51:43.159Z,11.58
2023-04-20T01:56:47.263Z,11.28
2023-04-20T02:01:51.733Z,11.23
2023-04-20T02:06:54.517Z,11.33
2023-04-20T02:11:58.672Z,11.60
2023-04-20T02:17:01.993Z,11.16
2023-04-20T02:22:04.864Z,11.31
2023-04-20T02:27:08.948Z,10.83
2023-04-20T02:32:11.766Z,11.15
2023-04-20T02:37:14.794Z,10.88
2023-04-20T02:42:20.066Z,11.74
2023-04-20T02:47:24.440Z,11.27
2023-04-20T02:52:29.608Z,11.15
2023-04-20T02:57:36.394Z,11.28
2023-04-20T03:02:39.988Z,10.92
2023-04-20T03:07:43.573Z,11.28
2023-04-20T03:12:49.494Z,11.67
2023-04-20T03:18:10.728Z,11.32
2023-04-20T03:23:14.011Z,11.00
2023-04-20T03:28:18.711Z,10.83
2023-04-20T03:33:21.988Z,11.19
2023-04-20T03:38:24.887Z,11.07
2023-04-20T03:43:29.833Z,11.51
2023-04-20T03:48:33.746Z,11.17
2023-04-20T03:53:38.968Z,10.72
2023-04-20T03:58:46.000Z,10.23
2023-04-20T04:03:53.035Z,9.92
2023-04-20T04:08:56.118Z,10.16
2023-04-20T04:14:00.985Z,10.34
2023-04-20T04:19:05.289Z,9.68
2023-04-20T04:24:09.369Z,10.09
2023-04-20T04:29:20.179Z,10.06
2023-04-20T04:34:24.004Z,10.33
2023-04-20T04:39:29.131Z,9.96
2023-04-20T04:44:42.706Z,10.03
2023-04-20T04:49:49.811Z,9.97
2023-04-20T04:54:52.685Z,10.23
2023-04-20T04:59:56.856Z,10.52
2023-04-20T05:04:59.578Z,10.16
2023-04-20T05:10:02.333Z,10.20
2023-04-20T05:15:07.422Z,10.50
2023-04-20T05:20:11.947Z,9.93
2023-04-20T05:25:14.789Z,10.55
2023-04-20T05:30:21.883Z,10.64
2023-04-20T05:35:24.963Z,10.45
2023-04-20T05:40:27.806Z,10.51
2023-04-20T05:45:33.088Z,10.49
2023-04-20T05:50:35.970Z,10.19
2023-04-20T05:55:38.994Z,10.46
2023-04-20T06:00:43.128Z,10.36
2023-04-20T06:05:45.974Z,10.75
2023-04-20T06:10:48.749Z,11.37
2023-04-20T06:15:54.114Z,11.18
2023-04-20T06:20:57.118Z,11.13
2023-04-20T06:25:59.847Z,11.02
2023-04-20T06:31:04.708Z,11.11
2023-04-20T06:36:08.042Z,10.19
2023-04-20T06:41:10.767Z,10.90
2023-04-20T06:46:14.912Z,10.44
2023-04-20T06:51:17.719Z,11.38
2023-04-20T06:56:20.518Z,11.27
2023-04-20T07:01:24.724Z,11.44
2023-04-20T07:06:28.474Z,11.01
2023-04-20T07:11:31.289Z,11.03
2023-04-20T07:16:35.549Z,11.35
2023-04-20T07:21:38.544Z,11.04
2023-04-20T07:26:41.459Z,11.04
2023-04-20T07:31:45.771Z,11.81
2023-04-20T07:36:48.722Z,11.74
2023-04-20T07:41:51.881Z,11.70
2023-04-20T07:46:57.574Z,10.92
2023-04-20T07:52:15.047Z,11.32
2023-04-20T07:57:19.568Z,11.24
2023-04-20T08:02:24.430Z,11.61
2023-04-20T08:07:27.307Z,11.17
2023-04-20T08:12:30.187Z,11.34
2023-04-20T08:17:34.536Z,11.58
2023-04-20T08:22:37.371Z,10.85
2023-04-20T08:27:40.109Z,11.25
2023-04-20T08:32:44.674Z,10.79
2023-04-20T08:37:47.544Z,11.09
2023-04-20T08:42:50.280Z,10.26
2023-04-20T08:47:55.390Z,10.75
2023-04-20T08:52:58.704Z,11.20
2023-04-20T08:58:01.548Z,11.17
2023-04-20T09:03:05.795Z,11.80
2023-04-20T09:08:10.936Z,11.55
2023-04-20T09:13:22.689Z,11.93
2023-04-20T09:18:26.824Z,11.48
2023-04-20T09:23:29.575Z,11.60
2023-04-20T09:28:38.889Z,11.95
2023-04-20T09:33:43.081Z,11.68
2023-04-20T09:38:46.011Z,11.55
2023-04-20T09:43:49.053Z,11.40
2023-04-20T09:48:54.045Z,11.57
2023-04-20T09:53:58.273Z,12.15
2023-04-20T09:59:02.803Z,12.47
2023-04-20T10:04:11.046Z,14.46
2023-04-20T10:09:24.413Z,15.33
2023-04-20T10:14:27.310Z,13.29
2023-04-20T10:19:41.673Z,12.96
2023-04-20T10:24:44.462Z,13.35
2023-04-20T10:29:47.742Z,12.89
2023-04-20T10:35:02.228Z,12.86
2023-04-20T10:40:07.639Z,13.09
2023-04-20T10:45:11.840Z,13.52
2023-04-20T10:50:18.159Z,14.46
2023-04-20T10:55:21.889Z,14.67
2023-04-20T11:00:27.930Z,14.75
2023-04-20T11:05:32.205Z,13.51
2023-04-20T11:10:44.308Z,13.62
2023-04-20T11:15:47.332Z,13.02
2023-04-20T11:20:56.355Z,13.58
2023-04-20T11:25:59.223Z,13.58
2023-04-20T11:31:02.307Z,13.36
2023-04-20T11:36:06.957Z,13.85
2023-04-20T11:41:09.698Z,13.81
2023-04-20T11:46:17.260Z,13.73
2023-04-20T11:51:21.900Z,13.73
2023-04-20T11:56:24.777Z,14.25
2023-04-20T12:01:27.632Z,13.87
2023-04-20T12:06:32.686Z,14.25
2023-04-20T12:11:35.528Z,14.49
2023-04-20T12:16:38.268Z,14.29
2023-04-20T12:21:42.507Z,13.26
2023-04-20T12:26:46.003Z,12.78
2023-04-20T12:31:48.846Z,12.94
2023-04-20T12:36:53.153Z,12.94
2023-04-20T12:41:56.940Z,13.05
2023-04-20T12:46:59.858Z,12.73
2023-04-20T12:52:04.938Z,12.97
2023-04-20T12:57:08.927Z,13.09
2023-04-20T13:02:12.487Z,14.54
2023-04-20T13:07:16.656Z,14.59
2023-04-20T13:12:19.912Z,13.70
2023-04-20T13:17:22.682Z,15.49
2023-04-20T13:22:26.809Z,14.87
2023-04-20T13:27:29.534Z,15.83
2023-04-20T13:32:33.065Z,15.09
2023-04-20T13:37:39.100Z,15.23
2023-04-20T13:42:42.210Z,14.88
2023-04-20T13:47:45.285Z,15.28
2023-04-20T13:52:51.860Z,14.72
2023-04-20T13:57:54.634Z,15.49
2023-04-20T14:02:57.545Z,14.51
2023-04-20T14:08:04.397Z,15.60
2023-04-20T14:13:10.567Z,16.08
2023-04-20T14:18:13.619Z,16.29
2023-04-20T14:23:17.871Z,15.49
2023-04-20T14:28:27.766Z,15.36
2023-04-20T14:33:31.335Z,14.88
2023-04-20T14:38:41.521Z,15.99
2023-04-20T14:43:44.782Z,15.92
2023-04-20T14:48:49.058Z,16.85
2023-04-20T14:53:53.398Z,15.71
2023-04-20T14:58:57.180Z,16.02
2023-04-20T15:04:00.171Z,16.34
2023-04-20T15:09:04.812Z,16.74
2023-04-20T15:14:07.863Z,17.54
2023-04-20T15:19:10.733Z,17.23
2023-04-20T15:24:15.043Z,17.16
2023-04-20T15:29:18.098Z,16.58
2023-04-20T15:34:21.347Z,16.50
2023-04-20T15:39:26.072Z,16.03
2023-04-20T15:44:29.516Z,15.46
2023-04-20T15:49:37.227Z,15.38
2023-04-20T15:54:41.395Z,15.90
2023-04-20T15:59:44.245Z,15.79
2023-04-20T16:04:47.653Z,16.76
2023-04-20T16:09:54.168Z,15.85
2023-04-20T16:14:57.317Z,16.15
2023-04-20T16:20:00.265Z,16.06
2023-04-20T16:25:06.055Z,15.67
2023-04-20T16:30:13.137Z,15.67
2023-04-20T16:35:16.029Z,15.29
2023-04-20T16:40:20.880Z,15.33
2023-04-20T16:45:23.761Z,15.08
2023-04-20T16:50:27.702Z,15.09
2023-04-20T16:55:32.920Z,14.91
2023-04-20T17:00:36.427Z,15.24
2023-04-20T17:05:41.927Z,14.98
2023-04-20T17:10:46.702Z,15.01
2023-04-20T17:15:49.888Z,14.45
2023-04-20T17:20:53.104Z,14.24
2023-04-20T17:25:57.234Z,14.17
2023-04-20T17:31:00.287Z,14.03
2023-04-20T17:36:03.174Z,14.46
2023-04-20T17:41:07.458Z,14.06
2023-04-20T17:46:10.436Z,14.26
2023-04-20T17:51:14.101Z,14.29
2023-04-20T17:56:18.707Z,13.80
2023-04-20T18:01:21.643Z,14.08
2023-04-20T18:06:25.989Z,13.91
2023-04-20T18:11:30.608Z,13.52
2023-04-20T18:16:33.882Z,13.49
2023-04-20T18:21:36.688Z,13.87
2023-04-20T18:26:40.978Z,13.61
2023-04-20T18:31:45.332Z,13.50
2023-04-20T18:36:48.329Z,13.58
2023-04-20T18:41:52.520Z,13.20
2023-04-20T18:46:55.355Z,13.25
2023-04-20T18:51:58.279Z,13.36
2023-04-20T18:57:02.832Z,12.95
2023-04-20T19:02:05.936Z,13.20
2023-04-20T19:07:08.840Z,12.97
2023-04-20T19:12:13.114Z,12.96
2023-04-20T19:17:15.989Z,13.15
2023-04-20T19:22:18.760Z,13.30
2023-04-20T19:27:23.036Z,13.56
2023-04-20T19:32:26.070Z,12.60
2023-04-20T19:37:29.508Z,13.19
2023-04-20T19:42:33.667Z,13.31
2023-04-20T19:47:37.210Z,13.20
2023-04-20T19:52:40.148Z,13.00
2023-04-20T19:57:44.295Z,13.10
2023-04-20T20:02:47.218Z,12.94
2023-04-20T20:07:52.311Z,13.21
2023-04-20T20:12:56.509Z,12.81
2023-04-20T20:17:59.888Z,12.47
2023-04-20T20:23:02.995Z,12.74
2023-04-20T20:28:07.120Z,12.65
2023-04-20T20:33:10.130Z,12.33
2023-04-20T20:38:13.077Z,12.28
2023-04-20T20:43:18.335Z,12.13
2023-04-20T20:48:21.551Z,12.20
2023-04-20T20:53:24.612Z,12.23
2023-04-20T20:58:28.975Z,11.78
2023-04-20T21:03:31.985Z,11.85
2023-04-20T21:08:35.193Z,12.06
2023-04-20T21:13:39.331Z,12.08
2023-04-20T21:18:42.139Z,12.11
2023-04-20T21:23:45.003Z,12.06
2023-04-20T21:28:49.164Z,11.80
2023-04-20T21:33:52.132Z,12.07
2023-04-20T21:38:55.000Z,11.74
2023-04-20T21:43:59.160Z,11.78
2023-04-20T21:49:02.474Z,12.14
2023-04-20T21:54:05.369Z,11.84
2023-04-20T21:59:09.552Z,12.04
2023-04-20T22:04:12.489Z,12.04
2023-04-20T22:09:17.871Z,11.86
2023-04-20T22:14:22.380Z,11.97
2023-04-20T22:19:25.118Z,11.82
2023-04-20T22:24:30.471Z,12.17
2023-04-20T22:29:34.595Z,11.56
2023-04-20T22:34:37.360Z,11.88
2023-04-20T22:39:40.149Z,11.32
2023-04-20T22:44:44.217Z,11.48
2023-04-20T22:49:48.962Z,11.49
2023-04-20T22:54:51.832Z,11.47
2023-04-20T22:59:56.048Z,11.31
2023-04-20T23:04:58.900Z,11.31
2023-04-20T23:10:03.920Z,11.01
2023-04-20T23:15:09.360Z,11.22
2023-04-20T23:20:14.178Z,11.06
2023-04-20T23:25:17.478Z,11.26
2023-04-20T23:30:26.520Z,11.23
2023-04-20T23:35:29.435Z,11.35
2023-04-20T23:40:34.451Z,11.40
2023-04-20T23:45:40.172Z,11.31
2023-04-20T23:50:45.060Z,11.48
2023-04-20T23:55:51.740Z,10.94
